createdAt,value
2019-03-18T00:01:28.035Z,3.33
2019-03-18T00:03:56.353Z,3.62
2019-03-18T00:06:25.685Z,3.55
2019-03-18T00:08:53.789Z,3.25
2019-03-18T00:11:24.094Z,3.40
2019-03-18T00:13:52.186Z,3.58
2019-03-18T00:16:22.350Z,3.70
2019-03-18T00:18:50.441Z,3.20
2019-03-18T00:21:19.971Z,3.30
2019-03-18T00:23:48.073Z,3.80
2019-03-18T00:26:16.192Z,3.83
2019-03-18T00:28:45.527Z,3.70
2019-03-18T00:31:20.100Z,3.82
2019-03-18T00:33:48.272Z,3.98
2019-03-18T00:36:16.471Z,3.92
2019-03-18T00:38:44.592Z,3.83
2019-03-18T00:41:15.092Z,4.00
2019-03-18T00:43:43.279Z,4.12
2019-03-18T00:46:11.477Z,4.20
2019-03-18T00:48:39.753Z,4.50
2019-03-18T00:51:11.514Z,3.95
2019-03-18T00:53:39.634Z,3.17
2019-03-18T00:56:08.960Z,4.08
2019-03-18T00:58:37.123Z,4.47
2019-03-18T01:01:08.078Z,4.45
2019-03-18T01:03:36.211Z,4.22
2019-03-18T01:06:04.416Z,4.28
2019-03-18T01:08:32.586Z,4.58
2019-03-18T01:11:00.738Z,4.45
2019-03-18T01:13:28.876Z,4.35
2019-03-18T01:15:57.049Z,4.92
2019-03-18T01:18:28.466Z,4.20
2019-03-18T01:20:56.671Z,4.15
2019-03-18T01:23:24.799Z,4.10
2019-03-18T01:25:52.924Z,4.40
2019-03-18T01:28:21.140Z,4.28
2019-03-18T01:30:49.241Z,4.30
2019-03-18T01:33:17.442Z,3.90
2019-03-18T01:35:45.569Z,4.55
2019-03-18T01:38:13.748Z,4.60
2019-03-18T01:40:43.221Z,5.00
2019-03-18T01:43:11.265Z,4.80
2019-03-18T01:45:40.857Z,4.87
2019-03-18T01:48:09.400Z,4.83
2019-03-18T01:50:37.567Z,5.05
2019-03-18T01:53:05.764Z,5.45
2019-03-18T01:55:35.022Z,5.15
2019-03-18T01:58:03.232Z,4.92
2019-03-18T02:00:33.248Z,5.00
2019-03-18T02:03:01.363Z,4.70
2019-03-18T02:05:29.492Z,5.15
2019-03-18T02:07:57.610Z,4.80
2019-03-18T02:10:25.741Z,4.80
2019-03-18T02:12:55.965Z,5.10
2019-03-18T02:15:24.174Z,4.70
2019-03-18T02:17:54.417Z,4.45
2019-03-18T02:20:22.532Z,4.43
2019-03-18T02:22:50.766Z,4.87
2019-03-18T02:25:18.940Z,4.67
2019-03-18T02:27:47.003Z,4.60
2019-03-18T02:30:15.354Z,4.95
2019-03-18T02:32:43.454Z,5.03
2019-03-18T02:35:11.775Z,4.63
2019-03-18T02:37:40.047Z,5.12
2019-03-18T02:40:08.352Z,5.03
2019-03-18T02:42:36.477Z,5.83
2019-03-18T02:45:05.146Z,6.05
2019-03-18T02:47:33.442Z,6.45
2019-03-18T02:50:01.621Z,6.70
2019-03-18T02:52:31.780Z,6.30
2019-03-18T02:55:02.187Z,6.05
2019-03-18T02:57:30.380Z,6.83
2019-03-18T02:59:58.566Z,6.95
2019-03-18T03:02:26.781Z,6.85
2019-03-18T03:04:54.924Z,6.75
2019-03-18T03:07:23.076Z,7.70
2019-03-18T03:09:51.277Z,6.90
2019-03-18T03:12:21.330Z,7.92
2019-03-18T03:14:49.412Z,7.95
2019-03-18T03:17:21.426Z,7.50
2019-03-18T03:19:47.530Z,7.95
2019-03-18T03:22:15.733Z,8.10
2019-03-18T03:24:43.877Z,8.13
2019-03-18T03:27:12.018Z,9.03
2019-03-18T03:29:40.137Z,8.75
2019-03-18T03:32:08.375Z,9.08
2019-03-18T03:34:36.466Z,8.65
2019-03-18T03:37:04.616Z,9.65
2019-03-18T03:39:32.808Z,9.30
2019-03-18T03:42:01.035Z,9.88
2019-03-18T03:44:29.210Z,10.55
2019-03-18T03:46:57.323Z,10.43
2019-03-18T03:49:25.508Z,10.48
2019-03-18T03:51:53.622Z,11.20
2019-03-18T03:54:21.669Z,10.30
2019-03-18T03:56:49.674Z,9.63
2019-03-18T03:59:17.963Z,9.28
2019-03-18T04:01:45.949Z,9.20
2019-03-18T04:04:14.035Z,9.20
2019-03-18T04:06:41.986Z,9.35
2019-03-18T04:09:10.010Z,8.60
2019-03-18T04:11:38.026Z,8.85
2019-03-18T04:14:33.219Z,9.10
2019-03-18T04:17:02.454Z,9.70
2019-03-18T04:19:31.057Z,9.93
2019-03-18T04:21:59.113Z,10.13
2019-03-18T04:24:27.113Z,10.70
2019-03-18T04:26:55.080Z,11.03
2019-03-18T04:29:35.298Z,11.15
2019-03-18T04:34:24.395Z,11.38
2019-03-18T04:35:17.880Z,11.77
2019-03-18T04:38:03.049Z,11.85
2019-03-18T04:40:57.706Z,12.88
2019-03-18T04:51:03.450Z,13.10
2019-03-18T04:53:29.987Z,15.08
2019-03-18T04:56:33.204Z,14.23
2019-03-18T05:05:43.862Z,15.35
2019-03-18T05:08:27.561Z,16.00
2019-03-18T05:11:02.995Z,16.20
2019-03-18T05:14:12.166Z,15.88
2019-03-18T05:16:48.493Z,15.78
2019-03-18T05:19:36.064Z,16.57
2019-03-18T05:22:34.193Z,17.25
2019-03-18T05:25:01.147Z,16.97
2019-03-18T05:27:39.468Z,16.70
2019-03-18T05:30:16.646Z,17.60
2019-03-18T05:32:44.925Z,17.40
2019-03-18T05:35:13.197Z,17.20
2019-03-18T05:37:41.392Z,15.85
2019-03-18T05:40:09.503Z,16.80
2019-03-18T05:42:37.656Z,16.80
2019-03-18T05:45:09.149Z,17.08
2019-03-18T05:47:39.632Z,17.75
2019-03-18T05:50:07.696Z,17.02
2019-03-18T05:52:38.435Z,17.55
2019-03-18T05:55:06.788Z,18.37
2019-03-18T06:04:16.731Z,18.35
2019-03-18T06:06:48.026Z,16.12
2019-03-18T06:09:19.198Z,15.23
2019-03-18T06:11:47.421Z,14.93
2019-03-18T06:14:15.421Z,15.32
2019-03-18T06:16:43.456Z,15.00
2019-03-18T06:19:11.844Z,14.55
2019-03-18T06:21:39.964Z,15.05
2019-03-18T06:24:08.186Z,14.70
2019-03-18T06:26:36.356Z,15.10
2019-03-18T06:29:04.516Z,14.47
2019-03-18T06:31:33.202Z,14.50
2019-03-18T06:34:01.335Z,14.73
2019-03-18T06:36:29.521Z,14.78
2019-03-18T06:38:57.658Z,14.58
2019-03-18T06:41:27.983Z,13.90
2019-03-18T06:43:56.581Z,13.83
2019-03-18T06:46:24.611Z,14.10
2019-03-18T06:48:54.193Z,13.18
2019-03-18T06:51:27.211Z,12.45
2019-03-18T06:54:05.871Z,12.23
2019-03-18T06:59:41.608Z,10.78
2019-03-18T07:02:12.165Z,10.82
2019-03-18T07:04:40.347Z,10.58
2019-03-18T07:07:08.573Z,11.03
2019-03-18T07:09:39.099Z,9.83
2019-03-18T07:12:07.217Z,10.72
2019-03-18T07:14:35.314Z,11.60
2019-03-18T07:17:03.358Z,11.25
2019-03-18T07:19:31.502Z,11.88
2019-03-18T07:21:59.576Z,10.93
2019-03-18T07:24:28.026Z,11.93
2019-03-18T07:26:57.965Z,10.63
2019-03-18T07:29:26.144Z,11.33
2019-03-18T07:31:54.264Z,11.40
2019-03-18T07:34:22.334Z,11.33
2019-03-18T07:36:50.473Z,12.18
2019-03-18T07:39:18.580Z,11.12
2019-03-18T07:41:46.770Z,10.95
2019-03-18T07:44:22.475Z,11.00
2019-03-18T07:46:47.968Z,11.03
2019-03-18T07:49:15.992Z,10.30
2019-03-18T07:51:44.145Z,9.90
2019-03-18T07:54:12.304Z,8.90
2019-03-18T07:56:40.410Z,8.88
2019-03-18T07:59:10.983Z,7.53
2019-03-18T08:01:40.544Z,6.78
2019-03-18T08:04:08.628Z,6.70
2019-03-18T08:06:36.765Z,5.67
2019-03-18T08:09:07.481Z,5.35
2019-03-18T08:11:35.996Z,5.60
2019-03-18T08:14:04.125Z,5.33
2019-03-18T08:16:32.230Z,5.47
2019-03-18T08:19:00.367Z,6.33
2019-03-18T08:21:28.513Z,5.92
2019-03-18T08:23:59.177Z,6.22
2019-03-18T08:26:27.423Z,5.70
2019-03-18T08:28:55.570Z,6.20
2019-03-18T08:31:23.616Z,6.30
2019-03-18T08:33:51.658Z,7.10
2019-03-18T08:36:20.945Z,7.37
2019-03-18T08:38:58.375Z,6.90
2019-03-18T08:41:26.538Z,7.40
2019-03-18T08:43:54.741Z,8.03
2019-03-18T08:46:22.916Z,7.28
2019-03-18T08:48:55.768Z,7.50
2019-03-18T08:51:20.995Z,8.43
2019-03-18T08:53:49.140Z,8.63
2019-03-18T08:56:17.277Z,9.50
2019-03-18T08:58:47.736Z,9.50
2019-03-18T09:01:18.443Z,9.53
2019-03-18T09:03:46.614Z,9.18
2019-03-18T09:06:14.733Z,9.65
2019-03-18T09:08:43.022Z,10.08
2019-03-18T09:11:12.778Z,9.15
2019-03-18T09:13:41.020Z,7.85
2019-03-18T09:16:09.236Z,8.35
2019-03-18T09:18:38.572Z,7.95
2019-03-18T09:21:06.856Z,7.30
2019-03-18T09:23:35.143Z,7.55
2019-03-18T09:26:03.345Z,6.83
2019-03-18T09:28:31.535Z,6.62
2019-03-18T09:30:59.700Z,6.08
2019-03-18T09:33:27.844Z,6.60
2019-03-18T09:35:56.046Z,5.70
2019-03-18T09:38:24.084Z,5.83
2019-03-18T09:40:52.251Z,5.70
2019-03-18T09:43:20.295Z,6.20
2019-03-18T09:45:49.751Z,5.70
2019-03-18T09:48:20.922Z,5.53
2019-03-18T09:50:49.206Z,5.75
2019-03-18T09:53:18.961Z,5.65
2019-03-18T09:55:47.267Z,5.40
2019-03-18T09:58:22.570Z,6.10
2019-03-18T10:04:31.008Z,5.65
2019-03-18T10:06:59.411Z,6.28
2019-03-18T10:09:36.842Z,5.50
2019-03-18T10:12:10.294Z,5.62
2019-03-18T10:14:38.961Z,5.65
2019-03-18T10:17:25.249Z,5.90
2019-03-18T10:20:09.667Z,5.40
2019-03-18T10:22:40.444Z,4.62
2019-03-18T10:25:30.780Z,4.70
2019-03-18T10:28:03.016Z,5.03
2019-03-18T10:30:37.853Z,6.03
2019-03-18T10:33:15.918Z,4.33
2019-03-18T10:35:54.137Z,4.00
2019-03-18T10:38:28.323Z,3.40
2019-03-18T10:41:34.918Z,2.80
2019-03-18T10:43:28.725Z,2.65
2019-03-18T10:46:03.958Z,2.72
2019-03-18T10:48:34.904Z,2.55
2019-03-18T10:51:07.264Z,2.75
2019-03-18T10:53:39.674Z,2.77
2019-03-18T10:58:41.224Z,3.05
2019-03-18T11:01:15.847Z,3.30
2019-03-18T11:03:48.388Z,3.05
2019-03-18T11:06:20.871Z,3.02
2019-03-18T11:09:02.681Z,2.87
2019-03-18T11:11:42.350Z,3.90
2019-03-18T11:14:17.546Z,2.67
2019-03-18T11:16:43.082Z,2.60
2019-03-18T11:19:11.234Z,2.75
2019-03-18T11:21:39.510Z,2.50
2019-03-18T11:24:11.887Z,2.42
2019-03-18T11:26:42.675Z,2.80
2019-03-18T11:29:11.494Z,2.70
2019-03-18T11:31:42.486Z,3.25
2019-03-18T11:34:10.313Z,2.40
2019-03-18T11:36:38.514Z,3.05
2019-03-18T11:55:44.868Z,2.20
2019-03-18T11:58:24.372Z,2.00
2019-03-18T12:01:22.547Z,2.30
2019-03-18T12:03:51.958Z,2.00
2019-03-18T12:06:26.373Z,2.37
2019-03-18T12:08:54.820Z,2.30
2019-03-18T12:11:26.063Z,2.05
2019-03-18T12:14:11.715Z,2.60
2019-03-18T12:16:47.652Z,2.35
2019-03-18T12:19:26.239Z,2.00
2019-03-18T12:21:56.912Z,2.10
2019-03-18T12:24:34.990Z,2.10
2019-03-18T12:27:04.886Z,2.40
2019-03-18T12:29:38.377Z,2.27
2019-03-18T12:32:09.167Z,2.67
2019-03-18T12:34:39.439Z,2.27
2019-03-18T12:37:16.380Z,2.62
2019-03-18T12:40:03.641Z,3.10
2019-03-18T12:46:32.326Z,3.12
2019-03-18T13:01:34.700Z,2.75
2019-03-18T13:04:34.150Z,2.20
2019-03-18T13:07:32.393Z,2.08
2019-03-18T13:10:30.541Z,2.12
2019-03-18T13:13:33.769Z,2.15
2019-03-18T13:16:31.492Z,4.28
2019-03-18T13:22:33.529Z,2.95
2019-03-18T13:25:31.835Z,2.75
2019-03-18T13:28:36.308Z,2.50
2019-03-18T13:47:31.659Z,2.65
2019-03-18T13:50:33.470Z,2.10
2019-03-18T13:53:31.836Z,2.60
2019-03-18T13:56:41.767Z,2.00
2019-03-18T13:59:11.591Z,2.35
2019-03-18T14:01:39.780Z,1.87
2019-03-18T14:04:16.248Z,2.40
2019-03-18T14:06:41.925Z,2.15
2019-03-18T14:09:13.117Z,1.95
2019-03-18T14:11:45.881Z,2.55
2019-03-18T14:14:16.200Z,2.20
2019-03-18T14:16:48.288Z,2.90
2019-03-18T14:19:22.928Z,2.98
2019-03-18T14:22:01.958Z,2.08
2019-03-18T14:24:28.726Z,2.65
2019-03-18T14:26:58.200Z,2.10
2019-03-18T14:29:31.507Z,2.20
2019-03-18T14:32:06.918Z,2.02
2019-03-18T14:34:36.662Z,2.15
2019-03-18T14:37:04.820Z,2.60
2019-03-18T14:39:38.993Z,2.27
2019-03-18T14:42:12.871Z,2.17
2019-03-18T14:44:48.657Z,2.55
2019-03-18T14:47:16.953Z,2.45
2019-03-18T14:49:46.320Z,2.27
2019-03-18T14:52:14.915Z,2.60
2019-03-18T14:54:43.442Z,2.25
2019-03-18T14:57:16.269Z,2.22
2019-03-18T15:02:15.570Z,2.30
2019-03-18T15:04:43.795Z,2.08
2019-03-18T15:07:12.059Z,2.70
2019-03-18T15:09:40.270Z,2.67
2019-03-18T15:12:08.470Z,2.90
2019-03-18T15:14:36.708Z,3.08
2019-03-18T15:17:06.402Z,2.50
2019-03-18T15:19:34.675Z,3.25
2019-03-18T15:22:09.956Z,3.72
2019-03-18T15:24:38.152Z,3.22
2019-03-18T15:27:08.611Z,3.83
2019-03-18T15:29:36.815Z,4.08
2019-03-18T15:32:07.158Z,3.70
2019-03-18T15:34:35.054Z,3.37
2019-03-18T15:40:32.200Z,3.53
2019-03-18T15:43:08.363Z,4.08
2019-03-18T15:45:36.516Z,3.55
2019-03-18T15:48:04.793Z,2.83
2019-03-18T15:50:33.217Z,2.83
2019-03-18T15:53:03.099Z,2.75
2019-03-18T15:55:31.311Z,3.47
2019-03-18T15:57:59.542Z,2.45
2019-03-18T16:00:27.728Z,2.85
2019-03-18T16:02:55.957Z,2.50
2019-03-18T16:05:24.272Z,2.90
2019-03-18T16:07:52.421Z,3.83
2019-03-18T16:10:20.566Z,3.13
2019-03-18T16:12:48.716Z,3.52
2019-03-18T16:15:16.931Z,4.12
2019-03-18T16:17:45.879Z,2.42
2019-03-18T16:20:14.209Z,2.97
2019-03-18T16:22:42.516Z,2.70
2019-03-18T16:25:18.746Z,2.30
2019-03-18T16:27:47.063Z,2.90
2019-03-18T16:30:15.304Z,2.87
2019-03-18T16:32:43.429Z,2.77
2019-03-18T16:35:11.987Z,2.53
2019-03-18T16:37:40.077Z,3.02
2019-03-18T16:40:09.149Z,2.63
2019-03-18T16:42:37.449Z,2.27
2019-03-18T16:45:06.199Z,2.44
2019-03-18T16:47:35.493Z,2.77
2019-03-18T16:50:03.664Z,2.30
2019-03-18T16:52:36.135Z,3.15
2019-03-18T16:55:01.650Z,2.62
2019-03-18T16:57:36.151Z,2.65
2019-03-18T17:06:39.980Z,2.90
2019-03-18T17:09:33.416Z,2.90
2019-03-18T17:12:31.454Z,2.62
2019-03-18T17:14:59.651Z,2.65
2019-03-18T17:17:27.884Z,2.67
2019-03-18T17:19:56.030Z,3.00
2019-03-18T17:22:24.296Z,3.20
2019-03-18T17:24:52.673Z,3.20
2019-03-18T17:27:21.073Z,2.50
2019-03-18T17:29:49.233Z,2.92
2019-03-18T17:32:17.414Z,3.25
2019-03-18T17:34:45.583Z,3.08
2019-03-18T17:37:13.855Z,2.65
2019-03-18T17:39:41.987Z,3.15
2019-03-18T17:42:10.191Z,2.80
2019-03-18T17:44:38.410Z,2.77
2019-03-18T17:47:07.604Z,3.30
2019-03-18T17:49:35.875Z,3.40
2019-03-18T17:52:04.281Z,3.40
2019-03-18T17:54:32.459Z,5.92
2019-03-18T17:57:07.252Z,5.60
2019-03-18T17:59:30.526Z,6.67
2019-03-18T18:01:58.732Z,5.83
2019-03-18T18:04:26.913Z,3.87
2019-03-18T18:06:57.728Z,3.30
2019-03-18T18:09:25.905Z,3.40
2019-03-18T18:11:54.064Z,2.95
2019-03-18T18:14:22.266Z,3.67
2019-03-18T18:16:50.511Z,3.42
2019-03-18T18:19:18.717Z,3.10
2019-03-18T18:21:47.030Z,3.60
2019-03-18T18:24:15.332Z,3.27
2019-03-18T18:26:43.480Z,2.72
2019-03-18T18:29:11.757Z,3.98
2019-03-18T18:31:39.966Z,3.98
2019-03-18T18:34:08.258Z,3.87
2019-03-18T18:36:36.414Z,3.15
2019-03-18T18:39:06.316Z,3.77
2019-03-18T18:41:34.537Z,3.75
2019-03-18T18:44:02.825Z,2.87
2019-03-18T18:46:30.987Z,3.20
2019-03-18T18:48:59.188Z,3.83
2019-03-18T18:51:27.296Z,3.25
2019-03-18T18:53:55.420Z,3.00
2019-03-18T18:56:23.645Z,2.60
2019-03-18T18:58:51.765Z,2.83
2019-03-18T19:01:20.031Z,3.47
2019-03-18T19:03:48.216Z,3.55
2019-03-18T19:06:16.463Z,3.00
2019-03-18T19:08:44.630Z,3.25
2019-03-18T19:11:12.887Z,2.37
2019-03-18T19:13:43.223Z,3.55
2019-03-18T19:16:11.477Z,3.62
2019-03-18T19:18:43.774Z,3.10
2019-03-18T19:21:14.099Z,3.40
2019-03-18T19:23:44.498Z,4.67
2019-03-18T19:26:13.158Z,2.83
2019-03-18T19:28:41.293Z,2.90
2019-03-18T19:31:09.753Z,2.80
2019-03-18T19:33:38.104Z,3.08
2019-03-18T19:36:06.460Z,3.02
2019-03-18T19:38:34.731Z,3.12
2019-03-18T19:41:04.870Z,2.98
2019-03-18T19:43:34.109Z,3.05
2019-03-18T19:46:02.278Z,3.25
2019-03-18T19:48:30.555Z,3.52
2019-03-18T19:50:58.694Z,3.67
2019-03-18T19:53:27.009Z,3.58
2019-03-18T19:55:57.671Z,3.35
2019-03-18T19:58:25.881Z,4.08
2019-03-18T20:00:54.193Z,3.50
2019-03-18T20:03:22.354Z,3.37
2019-03-18T20:05:50.602Z,3.50
2019-03-18T20:08:18.831Z,3.30
2019-03-18T20:10:47.062Z,3.85
2019-03-18T20:13:26.657Z,3.90
2019-03-18T20:15:54.983Z,3.85
2019-03-18T20:18:23.070Z,4.05
2019-03-18T20:20:51.226Z,4.10
2019-03-18T20:23:19.433Z,4.17
2019-03-18T20:25:47.617Z,3.58
2019-03-18T20:28:16.810Z,3.60
2019-03-18T20:30:46.078Z,2.92
2019-03-18T20:33:14.252Z,3.60
2019-03-18T20:35:42.397Z,3.37
2019-03-18T20:38:10.568Z,3.60
2019-03-18T20:40:38.730Z,3.75
2019-03-18T20:43:06.848Z,3.58
2019-03-18T20:45:35.017Z,3.30
2019-03-18T20:48:03.198Z,4.28
2019-03-18T20:50:31.434Z,4.12
2019-03-18T20:52:59.619Z,4.47
2019-03-18T20:55:27.666Z,4.55
2019-03-18T20:57:55.754Z,5.05
2019-03-18T21:00:38.934Z,4.47
2019-03-18T21:02:57.484Z,5.37
2019-03-18T21:05:41.277Z,4.53
2019-03-18T21:08:30.869Z,4.60
2019-03-18T21:11:05.437Z,4.67
2019-03-18T21:14:26.433Z,5.40
2019-03-18T21:17:30.853Z,5.62
2019-03-18T21:19:58.974Z,5.37
2019-03-18T21:25:55.527Z,5.00
2019-03-18T21:28:40.762Z,5.35
2019-03-18T21:31:50.327Z,5.33
2019-03-18T21:34:18.566Z,5.12
2019-03-18T21:36:49.091Z,5.60
2019-03-18T21:39:18.080Z,5.72
2019-03-18T21:41:46.470Z,6.85
2019-03-18T21:44:14.687Z,6.50
2019-03-18T21:46:43.498Z,6.67
2019-03-18T21:49:12.262Z,7.45
2019-03-18T21:51:40.439Z,8.30
2019-03-18T21:54:08.634Z,9.65
2019-03-18T21:56:36.897Z,10.10
2019-03-18T21:59:05.058Z,10.13
2019-03-18T22:01:33.245Z,9.43
2019-03-18T22:04:02.797Z,8.88
2019-03-18T22:06:31.005Z,9.43
2019-03-18T22:09:02.306Z,9.43
2019-03-18T22:11:30.526Z,9.03
2019-03-18T22:13:58.798Z,8.80
2019-03-18T22:16:27.068Z,8.10
2019-03-18T22:18:59.696Z,8.45
2019-03-18T22:21:25.144Z,7.78
2019-03-18T22:23:53.466Z,7.75
2019-03-18T22:26:21.516Z,8.10
2019-03-18T22:28:50.772Z,7.47
2019-03-18T22:31:19.057Z,7.35
2019-03-18T22:33:47.249Z,7.97
2019-03-18T22:36:15.393Z,8.88
2019-03-18T22:38:43.518Z,8.40
2019-03-18T22:41:11.752Z,8.45
2019-03-18T22:43:39.960Z,7.78
2019-03-18T22:46:08.085Z,8.15
2019-03-18T22:48:36.200Z,7.80
2019-03-18T22:51:04.363Z,7.97
2019-03-18T22:53:32.579Z,7.58
2019-03-18T22:56:02.134Z,8.58
2019-03-18T22:58:30.231Z,7.92
2019-03-18T23:01:12.916Z,8.13
2019-03-18T23:03:41.154Z,7.83
2019-03-18T23:06:09.267Z,7.72
2019-03-18T23:08:37.488Z,7.65
2019-03-18T23:11:05.693Z,7.80
2019-03-18T23:13:33.811Z,7.30
2019-03-18T23:16:01.966Z,6.45
2019-03-18T23:18:30.105Z,6.50
2019-03-18T23:20:59.540Z,6.35
2019-03-18T23:23:27.725Z,6.95
2019-03-18T23:25:55.936Z,6.42
2019-03-18T23:28:24.168Z,6.30
2019-03-18T23:30:52.315Z,6.37
2019-03-18T23:33:20.471Z,6.37
2019-03-18T23:35:48.745Z,6.62
2019-03-18T23:38:16.901Z,6.10
2019-03-18T23:40:45.096Z,7.05
2019-03-18T23:43:13.226Z,8.08
2019-03-18T23:45:41.403Z,7.58
2019-03-18T23:48:09.666Z,7.12
2019-03-18T23:50:37.822Z,7.83
2019-03-18T23:53:07.288Z,9.15
2019-03-18T23:55:35.470Z,8.80
2019-03-18T23:58:03.574Z,10.18
